Time;durP1;ratioP1;P1;durP2;ratioP2;P2;SDS_P1;SDS_P2;PMS_P1;PMS_P2;Temp;Humidity;BMP_temperature;BMP_pressure;BME280_temperature;BME280_humidity;BME280_pressure;Samples;Min_cycle;Max_cycle;Signal;HPM_P1;HPM_P2
2022/09/03 00:00:22;;;;;;;0.63;0.47;;;;;;;;;;5072677;28;20040;-54
2022/09/03 00:03:08;;;;;;;0.43;0.28;;;;;;;;;;5071176;28;20540;-56
2022/09/03 00:05:43;;;;;;;0.30;0.30;;;;;;;;;;5054849;28;20057;-55
2022/09/03 00:08:22;;;;;;;1.17;0.40;;;;;;;;;;5074783;28;20043;-54
2022/09/03 00:10:53;;;;;;;0.75;0.45;;;;;;;;;;5074757;28;20058;-54
2022/09/03 00:13:22;;;;;;;0.50;0.40;;;;;;;;;;5072871;28;20058;-54
2022/09/03 00:15:50;;;;;;;0.57;0.40;;;;;;;;;;5069869;28;20052;-54
2022/09/03 00:18:18;;;;;;;0.47;0.40;;;;;;;;;;5080633;28;20047;-57
2022/09/03 00:20:49;;;;;;;0.40;0.40;;;;;;;;;;5073901;28;20055;-53
2022/09/03 00:23:19;;;;;;;0.57;0.30;;;;;;;;;;5077351;28;20114;-57
2022/09/03 00:25:48;;;;;;;0.30;0.30;;;;;;;;;;5071616;28;20543;-55
2022/09/03 00:28:18;;;;;;;0.38;0.25;;;;;;;;;;5078121;28;20040;-55
2022/09/03 00:30:46;;;;;;;0.57;0.30;;;;;;;;;;5073242;28;20143;-57
2022/09/03 00:33:17;;;;;;;0.65;0.30;;;;;;;;;;5074437;28;20051;-53
2022/09/03 00:35:47;;;;;;;0.30;0.30;;;;;;;;;;5076553;28;20105;-56
2022/09/03 00:38:13;;;;;;;0.20;0.20;;;;;;;;;;5077926;28;20127;-55
2022/09/03 00:40:56;;;;;;;0.85;0.40;;;;;;;;;;5077281;28;20040;-55
2022/09/03 00:43:42;;;;;;;0.70;0.50;;;;;;;;;;5076093;28;20037;-57
2022/09/03 00:46:27;;;;;;;0.32;0.20;;;;;;;;;;5074512;28;20076;-55
2022/09/03 00:49:05;;;;;;;0.77;0.50;;;;;;;;;;5074444;28;20090;-53
2022/09/03 00:51:30;;;;;;;0.20;0.20;;;;;;;;;;5073721;28;20100;-53
2022/09/03 00:54:15;;;;;;;0.45;0.30;;;;;;;;;;5074765;28;20451;-56
2022/09/03 00:56:52;;;;;;;0.55;0.38;;;;;;;;;;5080916;28;20060;-55
2022/09/03 00:59:27;;;;;;;0.82;0.20;;;;;;;;;;5075856;28;20105;-56
2022/09/03 01:02:03;;;;;;;0.40;0.30;;;;;;;;;;5074471;28;20036;-53
2022/09/03 01:04:48;;;;;;;0.70;0.50;;;;;;;;;;5076932;28;20115;-56
2022/09/03 01:07:32;;;;;;;0.40;0.40;;;;;;;;;;5073757;28;20040;-57
2022/09/03 01:10:06;;;;;;;0.20;0.20;;;;;;;;;;5079766;28;20047;-54
2022/09/03 01:12:55;;;;;;;0.30;0.30;;;;;;;;;;5083942;28;20075;-56
2022/09/03 01:15:40;;;;;;;0.43;0.30;;;;;;;;;;5078302;28;20600;-53
2022/09/03 01:18:14;;;;;;;0.50;0.50;;;;;;;;;;5075851;28;20109;-55
2022/09/03 01:20:40;;;;;;;0.32;0.30;;;;;;;;;;5079292;28;20051;-53
2022/09/03 01:23:16;;;;;;;0.22;0.22;;;;;;;;;;5077578;28;20358;-53
2022/09/03 01:25:53;;;;;;;0.60;0.60;;;;;;;;;;5078488;28;20098;-55
2022/09/03 01:28:39;;;;;;;0.20;0.20;;;;;;;;;;5075503;28;20113;-55
2022/09/03 01:31:18;;;;;;;0.45;0.43;;;;;;;;;;5080215;28;20067;-54
2022/09/03 01:33:49;;;;;;;0.35;0.28;;;;;;;;;;5078629;28;20045;-55
2022/09/03 01:36:18;;;;;;;0.28;0.28;;;;;;;;;;5077679;28;20075;-52
2022/09/03 01:38:49;;;;;;;0.10;0.10;;;;;;;;;;5076095;28;20056;-54
2022/09/03 01:44:19;;;;;;;0.20;0.13;;;;;;;;;;5080408;28;20051;-55
2022/09/03 01:46:48;;;;;;;0.10;0.10;;;;;;;;;;5069952;28;21073;-55
2022/09/03 01:49:22;;;;;;;0.30;0.20;;;;;;;;;;5076255;28;20041;-57
2022/09/03 01:51:58;;;;;;;0.10;0.10;;;;;;;;;;5078576;28;20491;-53
2022/09/03 01:54:41;;;;;;;0.20;0.20;;;;;;;;;;5082938;28;20048;-56
2022/09/03 01:57:10;;;;;;;0.52;0.10;;;;;;;;;;5073619;28;20043;-53
2022/09/03 01:59:39;;;;;;;0.22;0.20;;;;;;;;;;5076516;28;20289;-56
2022/09/03 02:02:08;;;;;;;0.10;0.10;;;;;;;;;;5074432;28;20075;-59
2022/09/03 02:04:35;;;;;;;0.40;0.20;;;;;;;;;;5079685;28;20036;-54
2022/09/03 02:07:02;;;;;;;0.38;0.38;;;;;;;;;;5079972;28;20054;-55
2022/09/03 02:09:28;;;;;;;1.05;0.30;;;;;;;;;;5079398;28;20050;-54
2022/09/03 02:12:06;;;;;;;0.30;0.20;;;;;;;;;;5077969;28;20726;-55
2022/09/03 02:14:32;;;;;;;0.20;0.10;;;;;;;;;;5075018;28;20036;-53
2022/09/03 02:16:59;;;;;;;0.13;0.13;;;;;;;;;;5079670;28;20082;-54
2022/09/03 02:19:26;;;;;;;0.15;0.10;;;;;;;;;;5078428;28;20036;-53
2022/09/03 02:21:53;;;;;;;0.20;0.20;;;;;;;;;;5077123;28;20068;-57
2022/09/03 02:24:19;;;;;;;0.95;0.40;;;;;;;;;;5083042;28;20039;-56
2022/09/03 02:26:45;;;;;;;0.20;0.20;;;;;;;;;;5080058;28;20048;-52
2022/09/03 02:29:12;;;;;;;0.85;0.35;;;;;;;;;;5078276;28;20093;-56
2022/09/03 02:31:38;;;;;;;0.32;0.30;;;;;;;;;;5079558;28;20068;-53
2022/09/03 02:34:04;;;;;;;0.30;0.30;;;;;;;;;;5077897;28;20109;-52
2022/09/03 02:36:35;;;;;;;0.30;0.30;;;;;;;;;;5077963;28;20054;-57
2022/09/03 02:39:01;;;;;;;0.52;0.20;;;;;;;;;;5075457;28;20151;-53
2022/09/03 02:41:27;;;;;;;0.30;0.30;;;;;;;;;;5075060;28;20509;-53
2022/09/03 02:44:02;;;;;;;0.52;0.30;;;;;;;;;;5072913;28;20075;-52
2022/09/03 02:46:44;;;;;;;0.30;0.30;;;;;;;;;;5077680;28;20536;-55
2022/09/03 02:49:10;;;;;;;0.20;0.20;;;;;;;;;;5078312;28;20052;-53
2022/09/03 02:51:38;;;;;;;0.20;0.20;;;;;;;;;;5076802;28;20219;-55
2022/09/03 02:54:04;;;;;;;2.17;0.32;;;;;;;;;;5077714;28;20052;-55
2022/09/03 02:56:31;;;;;;;0.30;0.28;;;;;;;;;;5082243;28;20058;-57
2022/09/03 02:58:57;;;;;;;0.10;0.10;;;;;;;;;;5076979;28;20060;-53
2022/09/03 03:01:23;;;;;;;0.20;0.17;;;;;;;;;;5071397;28;20565;-55
2022/09/03 03:03:49;;;;;;;0.60;0.30;;;;;;;;;;5078119;28;20047;-54
2022/09/03 03:06:19;;;;;;;0.30;0.20;;;;;;;;;;5073397;28;20041;-53
2022/09/03 03:08:45;;;;;;;0.40;0.40;;;;;;;;;;5074018;28;20048;-58
2022/09/03 03:11:17;;;;;;;0.20;0.15;;;;;;;;;;5079418;28;20460;-51
2022/09/03 03:13:43;;;;;;;0.30;0.20;;;;;;;;;;5078421;28;20050;-56
2022/09/03 03:16:09;;;;;;;0.20;0.20;;;;;;;;;;5075866;28;20045;-53
2022/09/03 03:18:35;;;;;;;0.10;0.10;;;;;;;;;;5074094;28;20055;-53
2022/09/03 03:21:08;;;;;;;0.30;0.30;;;;;;;;;;5079138;28;20533;-53
2022/09/03 03:23:35;;;;;;;0.43;0.30;;;;;;;;;;5078353;28;20098;-53
2022/09/03 03:26:01;;;;;;;0.30;0.30;;;;;;;;;;5078048;28;20048;-54
2022/09/03 03:28:28;;;;;;;0.10;0.10;;;;;;;;;;5077020;28;20044;-55
2022/09/03 03:30:54;;;;;;;0.20;0.20;;;;;;;;;;5076790;28;20495;-53
2022/09/03 03:33:20;;;;;;;0.20;0.20;;;;;;;;;;5078891;28;20040;-56
2022/09/03 03:35:46;;;;;;;0.17;0.17;;;;;;;;;;5075283;28;20144;-56
2022/09/03 03:38:12;;;;;;;0.30;0.20;;;;;;;;;;5073061;28;20044;-53
2022/09/03 03:40:38;;;;;;;0.20;0.20;;;;;;;;;;5079709;28;20054;-57
2022/09/03 03:43:04;;;;;;;0.20;0.20;;;;;;;;;;5071337;28;20494;-54
2022/09/03 03:45:30;;;;;;;1.10;0.30;;;;;;;;;;5078690;28;20044;-53
2022/09/03 03:48:00;;;;;;;0.35;0.30;;;;;;;;;;5074003;28;20047;-54
2022/09/03 03:50:26;;;;;;;0.70;0.32;;;;;;;;;;5080032;28;20085;-52
2022/09/03 03:52:52;;;;;;;0.30;0.30;;;;;;;;;;5073725;28;20056;-53
2022/09/03 03:55:18;;;;;;;0.40;0.40;;;;;;;;;;5079704;28;20121;-55
2022/09/03 03:57:44;;;;;;;0.20;0.20;;;;;;;;;;5073968;28;20563;-52
2022/09/03 04:00:11;;;;;;;0.38;0.38;;;;;;;;;;5073985;28;20045;-52
2022/09/03 04:02:37;;;;;;;0.45;0.45;;;;;;;;;;5077652;28;20499;-54
2022/09/03 04:05:03;;;;;;;0.50;0.40;;;;;;;;;;5075532;28;20097;-53
2022/09/03 04:07:29;;;;;;;0.35;0.35;;;;;;;;;;5073645;28;20044;-51
2022/09/03 04:09:55;;;;;;;0.60;0.60;;;;;;;;;;5076599;28;20050;-54
2022/09/03 04:12:21;;;;;;;0.30;0.30;;;;;;;;;;5072860;28;20677;-53
2022/09/03 04:14:47;;;;;;;0.17;0.17;;;;;;;;;;5075268;28;20043;-57
2022/09/03 04:17:13;;;;;;;0.45;0.40;;;;;;;;;;5076540;28;20044;-52
2022/09/03 04:19:39;;;;;;;0.77;0.40;;;;;;;;;;5073796;28;20048;-51
2022/09/03 04:22:05;;;;;;;0.63;0.28;;;;;;;;;;5074246;28;20493;-56
2022/09/03 04:24:31;;;;;;;0.30;0.30;;;;;;;;;;5074888;28;20051;-53
2022/09/03 04:26:57;;;;;;;0.45;0.30;;;;;;;;;;5074418;28;20048;-56
2022/09/03 04:29:24;;;;;;;0.20;0.20;;;;;;;;;;5076288;28;20032;-55
2022/09/03 04:34:36;;;;;;;0.38;0.38;;;;;;;;;;5048610;28;20159;-58
2022/09/03 04:37:02;;;;;;;0.38;0.30;;;;;;;;;;5075726;28;20661;-53
2022/09/03 04:39:28;;;;;;;0.35;0.35;;;;;;;;;;5076338;28;20098;-54
2022/09/03 04:41:54;;;;;;;0.13;0.13;;;;;;;;;;5073797;28;20051;-54
2022/09/03 04:44:20;;;;;;;0.20;0.20;;;;;;;;;;5074480;28;20047;-53
2022/09/03 04:46:47;;;;;;;0.20;0.20;;;;;;;;;;5075068;28;20555;-53
2022/09/03 04:49:13;;;;;;;0.17;0.17;;;;;;;;;;5073478;28;20415;-51
2022/09/03 04:51:39;;;;;;;0.30;0.30;;;;;;;;;;5073922;28;20080;-52
2022/09/03 04:54:05;;;;;;;0.10;0.10;;;;;;;;;;5074511;28;20048;-54
2022/09/03 04:56:33;;;;;;;0.57;0.30;;;;;;;;;;5075821;28;20060;-52
2022/09/03 04:59:00;;;;;;;0.32;0.30;;;;;;;;;;5074789;28;20036;-53
2022/09/03 05:01:27;;;;;;;0.20;0.20;;;;;;;;;;5076680;28;20044;-53
2022/09/03 05:03:55;;;;;;;1.00;0.25;;;;;;;;;;5074607;28;20456;-53
2022/09/03 05:06:21;;;;;;;0.30;0.30;;;;;;;;;;5075279;28;20041;-53
2022/09/03 05:08:51;;;;;;;1.17;0.20;;;;;;;;;;5067717;28;20411;-56
2022/09/03 05:11:17;;;;;;;0.32;0.32;;;;;;;;;;5071780;28;20048;-56
2022/09/03 05:13:44;;;;;;;0.40;0.40;;;;;;;;;;5053265;28;20040;-51
2022/09/03 05:16:12;;;;;;;0.28;0.28;;;;;;;;;;5055054;28;20521;-50
2022/09/03 05:18:38;;;;;;;0.20;0.20;;;;;;;;;;5060872;28;20044;-54
2022/09/03 05:21:06;;;;;;;0.60;0.40;;;;;;;;;;5075663;28;20048;-53
2022/09/03 05:23:35;;;;;;;0.38;0.35;;;;;;;;;;5072448;28;20521;-55
2022/09/03 05:26:02;;;;;;;0.52;0.52;;;;;;;;;;5073542;28;20056;-55
2022/09/03 05:28:29;;;;;;;0.43;0.40;;;;;;;;;;5076698;28;20120;-55
2022/09/03 05:30:59;;;;;;;0.40;0.40;;;;;;;;;;5073605;28;20049;-53
2022/09/03 05:33:25;;;;;;;0.45;0.45;;;;;;;;;;5077009;28;20169;-54
2022/09/03 05:35:52;;;;;;;0.73;0.22;;;;;;;;;;5077501;28;20040;-55
2022/09/03 05:38:18;;;;;;;0.77;0.50;;;;;;;;;;5077143;28;20059;-56
2022/09/03 05:40:44;;;;;;;0.32;0.32;;;;;;;;;;5080370;28;20044;-55
2022/09/03 05:43:10;;;;;;;0.30;0.30;;;;;;;;;;5080807;28;20570;-55
2022/09/03 05:45:36;;;;;;;0.30;0.30;;;;;;;;;;5081933;28;20040;-55
2022/09/03 05:48:02;;;;;;;0.45;0.30;;;;;;;;;;5079169;28;20684;-55
2022/09/03 05:50:28;;;;;;;0.50;0.50;;;;;;;;;;5075176;28;20051;-54
2022/09/03 05:52:54;;;;;;;0.77;0.40;;;;;;;;;;5080047;28;20403;-54
2022/09/03 05:55:20;;;;;;;0.30;0.30;;;;;;;;;;5078393;28;20052;-56
2022/09/03 05:57:51;;;;;;;1.08;0.60;;;;;;;;;;5081314;28;20055;-55
2022/09/03 06:00:18;;;;;;;0.60;0.60;;;;;;;;;;5076080;28;20047;-57
2022/09/03 06:02:49;;;;;;;0.60;0.55;;;;;;;;;;5081610;28;20074;-54
2022/09/03 06:05:17;;;;;;;0.73;0.50;;;;;;;;;;5075308;28;20415;-53
2022/09/03 06:07:44;;;;;;;1.05;0.65;;;;;;;;;;5073278;28;20377;-57
2022/09/03 06:10:11;;;;;;;0.52;0.47;;;;;;;;;;5078527;28;20040;-53
2022/09/03 06:12:37;;;;;;;0.52;0.50;;;;;;;;;;5078173;28;20052;-59
2022/09/03 06:15:04;;;;;;;0.52;0.52;;;;;;;;;;5078967;28;20481;-54
2022/09/03 06:17:30;;;;;;;0.60;0.60;;;;;;;;;;5078730;28;20418;-53
2022/09/03 06:19:56;;;;;;;0.50;0.30;;;;;;;;;;5076413;28;20036;-54
2022/09/03 06:22:24;;;;;;;0.55;0.40;;;;;;;;;;5078225;28;20055;-56
2022/09/03 06:24:50;;;;;;;0.40;0.40;;;;;;;;;;5079186;28;20044;-52
2022/09/03 06:27:16;;;;;;;0.50;0.40;;;;;;;;;;5078961;28;20109;-53
2022/09/03 06:29:43;;;;;;;0.85;0.60;;;;;;;;;;5078630;28;20090;-51
2022/09/03 06:32:09;;;;;;;0.47;0.47;;;;;;;;;;5079458;28;20040;-52
2022/09/03 06:34:35;;;;;;;0.75;0.50;;;;;;;;;;5081177;28;20051;-51
2022/09/03 06:37:01;;;;;;;2.85;0.60;;;;;;;;;;5075370;28;20460;-53
2022/09/03 06:39:27;;;;;;;0.57;0.52;;;;;;;;;;5075916;28;20072;-54
2022/09/03 06:41:53;;;;;;;0.40;0.40;;;;;;;;;;5076377;28;20082;-52
2022/09/03 06:44:19;;;;;;;0.60;0.60;;;;;;;;;;5077962;28;20086;-54
2022/09/03 06:46:46;;;;;;;0.70;0.60;;;;;;;;;;5071769;28;20040;-53
2022/09/03 06:49:12;;;;;;;0.70;0.55;;;;;;;;;;5079789;28;20115;-52
2022/09/03 06:51:38;;;;;;;0.50;0.50;;;;;;;;;;5076650;28;20135;-53
2022/09/03 06:54:06;;;;;;;0.43;0.43;;;;;;;;;;5075639;28;20110;-52
2022/09/03 06:56:32;;;;;;;0.68;0.50;;;;;;;;;;5084443;28;20135;-51
2022/09/03 06:58:59;;;;;;;1.00;0.70;;;;;;;;;;5070310;28;20040;-54
2022/09/03 07:01:27;;;;;;;0.60;0.57;;;;;;;;;;5073853;28;20085;-52
2022/09/03 07:03:57;;;;;;;1.52;0.40;;;;;;;;;;5068488;28;20575;-53
2022/09/03 07:06:27;;;;;;;0.77;0.52;;;;;;;;;;5086443;28;20036;-55
2022/09/03 07:08:57;;;;;;;0.55;0.55;;;;;;;;;;5086227;28;20052;-55
2022/09/03 07:11:25;;;;;;;0.88;0.60;;;;;;;;;;5085930;28;20513;-55
2022/09/03 07:13:52;;;;;;;0.40;0.40;;;;;;;;;;5085792;28;20560;-53
2022/09/03 07:16:19;;;;;;;0.98;0.60;;;;;;;;;;5080626;28;20044;-55
2022/09/03 07:18:45;;;;;;;0.90;0.60;;;;;;;;;;5080904;28;20552;-54
2022/09/03 07:21:13;;;;;;;0.45;0.45;;;;;;;;;;5082027;28;20098;-50
2022/09/03 07:23:39;;;;;;;0.63;0.50;;;;;;;;;;5075300;28;20036;-53
2022/09/03 07:26:07;;;;;;;0.40;0.40;;;;;;;;;;5070031;28;20044;-52
2022/09/03 07:28:34;;;;;;;1.05;0.43;;;;;;;;;;5067225;28;20051;-55
2022/09/03 07:31:02;;;;;;;1.08;0.88;;;;;;;;;;5075380;28;20548;-54
2022/09/03 07:33:30;;;;;;;0.50;0.50;;;;;;;;;;5077118;28;20396;-56
2022/09/03 07:35:56;;;;;;;0.60;0.60;;;;;;;;;;5082067;28;20056;-53
2022/09/03 07:38:22;;;;;;;2.67;0.85;;;;;;;;;;5069640;28;20113;-58
2022/09/03 07:40:48;;;;;;;0.50;0.50;;;;;;;;;;5065304;28;20063;-59
2022/09/03 07:43:15;;;;;;;0.70;0.70;;;;;;;;;;5065835;28;20483;-53
2022/09/03 07:45:42;;;;;;;1.02;0.73;;;;;;;;;;5065367;28;20064;-59
2022/09/03 07:48:08;;;;;;;1.08;0.90;;;;;;;;;;5083010;28;20048;-58
2022/09/03 07:50:38;;;;;;;1.77;0.60;;;;;;;;;;5070480;28;20089;-54
2022/09/03 07:53:04;;;;;;;0.70;0.57;;;;;;;;;;5080127;28;20550;-54
2022/09/03 07:55:30;;;;;;;0.77;0.68;;;;;;;;;;5084589;28;20063;-51
2022/09/03 07:57:56;;;;;;;0.80;0.80;;;;;;;;;;5085256;28;20048;-55
2022/09/03 08:00:22;;;;;;;0.75;0.68;;;;;;;;;;5084858;28;20126;-54
2022/09/03 08:02:48;;;;;;;0.65;0.57;;;;;;;;;;5084953;28;20499;-56
2022/09/03 08:05:14;;;;;;;1.23;0.70;;;;;;;;;;5085994;28;20047;-60
2022/09/03 08:07:40;;;;;;;1.45;0.75;;;;;;;;;;5084871;28;20056;-56
2022/09/03 08:10:07;;;;;;;4.13;1.30;;;;;;;;;;5073205;28;20431;-56
2022/09/03 08:12:33;;;;;;;1.08;0.68;;;;;;;;;;5076796;28;20428;-57
2022/09/03 08:14:59;;;;;;;1.02;0.60;;;;;;;;;;5076648;28;20040;-54
2022/09/03 08:17:25;;;;;;;0.57;0.55;;;;;;;;;;5085083;28;20139;-58
2022/09/03 08:19:51;;;;;;;0.60;0.52;;;;;;;;;;5085039;28;20127;-53
2022/09/03 08:22:17;;;;;;;0.77;0.68;;;;;;;;;;5084835;28;20765;-58
2022/09/03 08:24:44;;;;;;;1.83;0.57;;;;;;;;;;5085509;28;20101;-52
2022/09/03 08:27:10;;;;;;;0.82;0.82;;;;;;;;;;5085070;28;20126;-54
2022/09/03 08:29:36;;;;;;;0.55;0.50;;;;;;;;;;5085022;28;20123;-54
2022/09/03 08:32:03;;;;;;;1.55;0.68;;;;;;;;;;5082072;28;20036;-53
2022/09/03 08:34:29;;;;;;;0.60;0.50;;;;;;;;;;5085118;28;20417;-53
2022/09/03 08:36:55;;;;;;;0.52;0.50;;;;;;;;;;5070323;28;20048;-53
2022/09/03 08:39:21;;;;;;;1.02;0.82;;;;;;;;;;5064943;28;20045;-54
2022/09/03 08:41:53;;;;;;;1.30;0.65;;;;;;;;;;5070420;28;20040;-59
2022/09/03 08:44:30;;;;;;;0.80;0.52;;;;;;;;;;5074498;28;20040;-50
2022/09/03 08:47:02;;;;;;;1.38;0.82;;;;;;;;;;5064581;28;20040;-53
2022/09/03 08:49:28;;;;;;;;;;;;;;;;;;5064500;28;20127;-57
2022/09/03 08:51:56;;;;;;;0.70;0.70;;;;;;;;;;5067364;28;20014;-54
2022/09/03 08:54:25;;;;;;;0.90;0.90;;;;;;;;;;5084869;28;20469;-53
2022/09/03 08:56:51;;;;;;;1.05;0.57;;;;;;;;;;5070351;28;20131;-54
2022/09/03 08:59:17;;;;;;;0.60;0.60;;;;;;;;;;5072151;28;20040;-59
2022/09/03 09:01:51;;;;;;;0.50;0.50;;;;;;;;;;5070624;28;20388;-54
2022/09/03 09:04:36;;;;;;;0.63;0.43;;;;;;;;;;5083338;28;20032;-60
2022/09/03 09:07:08;;;;;;;3.40;0.70;;;;;;;;;;5084754;28;20043;-54
2022/09/03 09:10:00;;;;;;;0.30;0.30;;;;;;;;;;5058175;28;20055;-58
2022/09/03 09:12:26;;;;;;;;;;;;;;;;;;5072266;28;20056;-57
2022/09/03 09:15:11;;;;;;;2.63;0.68;;;;;;;;;;5083895;28;19930;-60
2022/09/03 09:17:50;;;;;;;0.80;0.80;;;;;;;;;;5074997;28;20047;-58
2022/09/03 09:20:25;;;;;;;1.50;0.70;;;;;;;;;;5086192;28;20051;-54
2022/09/03 09:22:55;;;;;;;0.90;0.40;;;;;;;;;;5088324;28;20428;-58
2022/09/03 09:25:23;;;;;;;2.35;0.85;;;;;;;;;;5073758;28;20719;-58
2022/09/03 09:27:56;;;;;;;1.02;0.65;;;;;;;;;;5085595;28;20048;-56
2022/09/03 09:30:22;;;;;;;0.40;0.40;;;;;;;;;;5085474;28;20049;-61
2022/09/03 09:32:48;;;;;;;1.50;0.73;;;;;;;;;;5076475;28;20046;-57
2022/09/03 09:35:16;;;;;;;0.80;0.60;;;;;;;;;;5078709;28;20040;-58
2022/09/03 09:37:48;;;;;;;1.63;0.63;;;;;;;;;;5086643;28;20512;-56
2022/09/03 09:40:43;;;;;;;0.50;0.50;;;;;;;;;;5086899;28;20562;-54
2022/09/03 09:43:20;;;;;;;1.35;0.63;;;;;;;;;;5060655;28;20044;-54
2022/09/03 09:45:48;;;;;;;1.35;0.73;;;;;;;;;;5081337;28;20056;-57
2022/09/03 09:48:30;;;;;;;0.63;0.63;;;;;;;;;;5080618;28;20051;-55
2022/09/03 09:51:18;;;;;;;3.55;0.73;;;;;;;;;;5084677;28;20048;-56
2022/09/03 09:53:45;;;;;;;1.02;0.55;;;;;;;;;;5082232;28;20060;-55
2022/09/03 09:56:24;;;;;;;0.63;0.50;;;;;;;;;;5079486;28;20078;-57
2022/09/03 09:59:01;;;;;;;1.52;0.60;;;;;;;;;;5080947;28;20043;-56
2022/09/03 10:01:29;;;;;;;0.60;0.60;;;;;;;;;;5070487;28;20044;-56
2022/09/03 10:04:15;;;;;;;1.02;0.50;;;;;;;;;;5163229;22;20057;-74
2022/09/03 10:06:55;;;;;;;0.75;0.70;;;;;;;;;;5002474;28;20057;-74
2022/09/03 10:09:26;;;;;;;0.60;0.50;;;;;;;;;;5024180;28;20207;-74
2022/09/03 10:12:13;;;;;;;0.50;0.40;;;;;;;;;;5027460;28;20132;-75
2022/09/03 10:14:46;;;;;;;0.95;0.45;;;;;;;;;;5027544;28;20053;-74
2022/09/03 10:17:21;;;;;;;1.52;0.55;;;;;;;;;;5016700;28;20061;-75
2022/09/03 10:22:56;;;;;;;1.02;0.75;;;;;;;;;;5017974;28;20054;-75
2022/09/03 10:25:23;;;;;;;1.23;0.85;;;;;;;;;;5014654;28;20068;-74
2022/09/03 10:27:50;;;;;;;0.65;0.57;;;;;;;;;;5013029;28;20077;-75
2022/09/03 10:30:17;;;;;;;4.22;0.93;;;;;;;;;;5023832;28;20056;-75
2022/09/03 10:33:04;;;;;;;1.27;0.70;;;;;;;;;;5015197;28;20123;-68
2022/09/03 10:35:32;;;;;;;1.42;0.68;;;;;;;;;;5010788;28;20164;-70
2022/09/03 10:38:13;;;;;;;0.35;0.32;;;;;;;;;;5020367;28;20049;-72
2022/09/03 10:40:39;;;;;;;0.93;0.60;;;;;;;;;;5019600;28;20046;-74
2022/09/03 10:43:17;;;;;;;2.80;0.70;;;;;;;;;;5013920;28;20057;-74
2022/09/03 10:45:44;;;;;;;0.40;0.40;;;;;;;;;;5021055;28;20081;-74
2022/09/03 10:48:15;;;;;;;1.88;0.90;;;;;;;;;;5026622;28;20124;-73
2022/09/03 10:50:41;;;;;;;;;;;;;;;;;;5023196;28;20057;-74
2022/09/03 10:53:20;;;;;;;2.63;0.50;;;;;;;;;;5014992;28;19928;-74
2022/09/03 10:55:50;;;;;;;1.33;0.75;;;;;;;;;;5017770;28;20069;-74
2022/09/03 10:58:31;;;;;;;4.35;1.08;;;;;;;;;;5017945;28;20067;-74
2022/09/03 11:01:03;;;;;;;1.15;0.80;;;;;;;;;;5023588;28;20046;-73
2022/09/03 11:03:29;;;;;;;0.88;0.60;;;;;;;;;;5013145;28;20110;-75
2022/09/03 11:06:11;;;;;;;0.93;0.50;;;;;;;;;;5020602;28;20069;-74
2022/09/03 11:08:37;;;;;;;;;;;;;;;;;;5019849;28;20129;-74
2022/09/03 11:11:06;;;;;;;1.30;0.60;;;;;;;;;;5012833;28;20007;-74
2022/09/03 11:13:35;;;;;;;0.52;0.50;;;;;;;;;;5024412;28;20140;-73
2022/09/03 11:16:25;;;;;;;0.98;0.60;;;;;;;;;;5011925;28;20681;-74
2022/09/03 11:18:55;;;;;;;0.52;0.50;;;;;;;;;;5015747;28;20439;-74
2022/09/03 11:21:23;;;;;;;0.50;0.47;;;;;;;;;;5016615;28;20046;-73
2022/09/03 11:23:52;;;;;;;1.10;0.65;;;;;;;;;;5022497;28;20056;-73
2022/09/03 11:26:19;;;;;;;2.15;0.80;;;;;;;;;;5014608;28;20045;-73
2022/09/03 11:28:57;;;;;;;1.00;0.60;;;;;;;;;;5011742;28;20046;-74
2022/09/03 11:31:37;;;;;;;2.38;0.68;;;;;;;;;;5011771;28;20137;-74
2022/09/03 11:34:08;;;;;;;1.90;0.88;;;;;;;;;;5024350;28;20052;-73
2022/09/03 11:36:36;;;;;;;0.98;0.60;;;;;;;;;;5022297;28;20104;-74
2022/09/03 11:39:15;;;;;;;1.45;0.52;;;;;;;;;;5021044;28;20120;-74
2022/09/03 11:41:41;;;;;;;1.13;0.80;;;;;;;;;;5019077;28;20057;-74
2022/09/03 11:44:11;;;;;;;2.33;0.77;;;;;;;;;;5025344;28;20038;-74
2022/09/03 11:46:39;;;;;;;0.90;0.63;;;;;;;;;;5017445;28;20049;-73
2022/09/03 11:49:10;;;;;;;1.23;0.50;;;;;;;;;;5025079;28;20404;-74
2022/09/03 11:51:40;;;;;;;0.95;0.57;;;;;;;;;;5021220;28;20050;-73
2022/09/03 11:54:23;;;;;;;0.55;0.38;;;;;;;;;;5016263;28;20053;-74
2022/09/03 11:56:50;;;;;;;0.93;0.70;;;;;;;;;;5016390;28;20558;-73
2022/09/03 11:59:19;;;;;;;0.40;0.40;;;;;;;;;;5016331;28;20125;-74
2022/09/03 12:02:11;;;;;;;0.60;0.50;;;;;;;;;;5016385;28;20053;-74
2022/09/03 12:04:43;;;;;;;1.02;0.60;;;;;;;;;;5009389;28;20057;-74
2022/09/03 12:07:12;;;;;;;1.23;0.50;;;;;;;;;;5017666;28;20076;-75
2022/09/03 12:09:44;;;;;;;1.83;0.52;;;;;;;;;;5017146;28;20042;-77
2022/09/03 12:12:14;;;;;;;0.93;0.50;;;;;;;;;;5010781;28;20053;-77
2022/09/03 12:14:56;;;;;;;1.27;0.50;;;;;;;;;;5020668;28;20068;-78
2022/09/03 12:17:41;;;;;;;5.15;0.85;;;;;;;;;;5014817;28;20112;-76
2022/09/03 12:20:12;;;;;;;0.68;0.55;;;;;;;;;;5011473;28;20590;-75
2022/09/03 12:22:38;;;;;;;1.45;0.60;;;;;;;;;;5020220;28;20073;-77
2022/09/03 12:25:14;;;;;;;3.10;0.60;;;;;;;;;;5015814;28;20402;-77
2022/09/03 12:27:43;;;;;;;0.52;0.35;;;;;;;;;;5019832;28;20095;-77
2022/09/03 12:30:21;;;;;;;0.43;0.43;;;;;;;;;;5024489;28;20115;-76
2022/09/03 12:32:47;;;;;;;0.70;0.70;;;;;;;;;;5017677;28;20574;-76
2022/09/03 12:35:14;;;;;;;1.65;0.80;;;;;;;;;;5020894;28;20046;-76
2022/09/03 12:37:44;;;;;;;0.50;0.43;;;;;;;;;;5013632;28;20148;-77
2022/09/03 12:40:20;;;;;;;0.45;0.45;;;;;;;;;;5019179;28;20045;-76
2022/09/03 12:42:47;;;;;;;1.52;0.50;;;;;;;;;;5018500;28;20395;-77
2022/09/03 12:45:15;;;;;;;0.82;0.50;;;;;;;;;;5024632;28;20048;-73
2022/09/03 12:47:42;;;;;;;0.63;0.40;;;;;;;;;;5022251;28;20083;-71
2022/09/03 12:50:15;;;;;;;0.73;0.40;;;;;;;;;;5023527;28;20108;-75
2022/09/03 12:52:47;;;;;;;1.98;0.57;;;;;;;;;;5022157;28;20108;-74
2022/09/03 12:55:19;;;;;;;0.52;0.50;;;;;;;;;;5020318;28;20049;-74
2022/09/03 12:57:48;;;;;;;0.77;0.50;;;;;;;;;;5022755;28;20603;-74
2022/09/03 13:00:15;;;;;;;1.95;0.82;;;;;;;;;;5016416;28;20527;-74
2022/09/03 13:02:46;;;;;;;1.92;0.73;;;;;;;;;;5019190;28;20053;-68
2022/09/03 13:05:16;;;;;;;1.10;0.88;;;;;;;;;;5017141;28;20064;-74
2022/09/03 13:07:46;;;;;;;0.75;0.60;;;;;;;;;;5036133;28;20726;-72
2022/09/03 13:10:32;;;;;;;1.40;0.60;;;;;;;;;;5014780;28;20504;-73
2022/09/03 13:13:03;;;;;;;3.00;0.65;;;;;;;;;;5017682;28;20053;-72
2022/09/03 13:15:30;;;;;;;0.60;0.40;;;;;;;;;;5019961;28;20045;-73
2022/09/03 13:18:08;;;;;;;0.60;0.55;;;;;;;;;;5017001;28;20128;-72
2022/09/03 13:20:34;;;;;;;1.92;0.57;;;;;;;;;;5027994;28;20526;-73
2022/09/03 13:23:08;;;;;;;0.35;0.32;;;;;;;;;;5021274;28;20345;-73
2022/09/03 13:25:53;;;;;;;1.30;0.50;;;;;;;;;;5024744;28;20046;-73
2022/09/03 13:28:29;;;;;;;0.52;0.50;;;;;;;;;;5016842;28;20037;-73
2022/09/03 13:30:58;;;;;;;1.75;0.60;;;;;;;;;;5020573;28;20060;-73
2022/09/03 13:33:32;;;;;;;1.08;0.40;;;;;;;;;;5022517;28;20042;-73
2022/09/03 13:36:04;;;;;;;0.65;0.45;;;;;;;;;;5015323;28;20053;-79
2022/09/03 13:38:39;;;;;;;0.55;0.38;;;;;;;;;;5019850;28;20081;-78
2022/09/03 13:41:09;;;;;;;0.40;0.40;;;;;;;;;;5025371;28;20460;-77
2022/09/03 13:43:44;;;;;;;1.08;0.30;;;;;;;;;;5022511;28;20056;-78
2022/09/03 13:46:13;;;;;;;0.50;0.40;;;;;;;;;;5026510;28;20136;-78
2022/09/03 13:51:28;;;;;;;0.40;0.40;;;;;;;;;;5017651;28;20049;-74
2022/09/03 13:54:17;;;;;;;0.70;0.30;;;;;;;;;;5021419;28;20057;-76
2022/09/03 13:57:00;;;;;;;0.55;0.40;;;;;;;;;;5016486;28;20125;-76
2022/09/03 13:59:44;;;;;;;0.30;0.30;;;;;;;;;;5018654;28;20088;-75
2022/09/03 14:02:15;;;;;;;0.30;0.30;;;;;;;;;;5023517;28;20073;-77
2022/09/03 14:04:56;;;;;;;0.60;0.43;;;;;;;;;;5024088;28;20058;-77
2022/09/03 14:07:44;;;;;;;0.80;0.60;;;;;;;;;;5020980;28;20073;-76
2022/09/03 14:10:13;;;;;;;0.32;0.32;;;;;;;;;;5013550;28;20165;-73
2022/09/03 14:12:48;;;;;;;0.40;0.40;;;;;;;;;;5012162;28;20401;-73
2022/09/03 14:15:24;;;;;;;0.52;0.45;;;;;;;;;;5020221;28;20515;-72
2022/09/03 14:17:59;;;;;;;0.63;0.60;;;;;;;;;;5017610;28;20490;-73
2022/09/03 14:20:25;;;;;;;0.50;0.50;;;;;;;;;;5009137;28;20660;-73
2022/09/03 14:23:11;;;;;;;1.05;0.47;;;;;;;;;;5009088;28;20052;-73
2022/09/03 14:25:39;;;;;;;0.60;0.40;;;;;;;;;;4995167;28;20064;-74
2022/09/03 14:28:24;;;;;;;1.30;0.60;;;;;;;;;;5039880;28;20073;-73
2022/09/03 14:30:55;;;;;;;0.73;0.52;;;;;;;;;;5009879;28;20038;-75
2022/09/03 14:33:21;;;;;;;0.60;0.30;;;;;;;;;;5020245;28;20057;-74
2022/09/03 14:35:50;;;;;;;0.55;0.50;;;;;;;;;;5013873;28;20057;-74
2022/09/03 14:38:38;;;;;;;2.00;0.50;;;;;;;;;;5026065;28;20046;-74
2022/09/03 14:41:06;;;;;;;0.82;0.30;;;;;;;;;;5026693;28;20073;-75
2022/09/03 14:43:38;;;;;;;0.57;0.57;;;;;;;;;;5027089;28;20049;-75
2022/09/03 14:46:23;;;;;;;0.65;0.52;;;;;;;;;;5027730;28;20056;-75
2022/09/03 14:48:55;;;;;;;0.60;0.47;;;;;;;;;;5026404;28;20037;-75
2022/09/03 14:51:41;;;;;;;0.63;0.43;;;;;;;;;;5027411;28;20216;-75
2022/09/03 14:54:10;;;;;;;1.52;0.40;;;;;;;;;;5027155;28;20386;-75
2022/09/03 14:56:37;;;;;;;0.68;0.30;;;;;;;;;;5027008;28;20045;-75
2022/09/03 14:59:14;;;;;;;0.98;0.43;;;;;;;;;;5027422;28;20060;-74
2022/09/03 15:01:41;;;;;;;0.30;0.30;;;;;;;;;;5026503;28;20128;-75
2022/09/03 15:04:18;;;;;;;0.52;0.40;;;;;;;;;;5027031;28;20073;-75
2022/09/03 15:06:49;;;;;;;1.20;0.30;;;;;;;;;;5026053;28;20049;-76
2022/09/03 15:09:15;;;;;;;0.70;0.22;;;;;;;;;;5026318;28;20566;-76
2022/09/03 15:11:48;;;;;;;0.40;0.38;;;;;;;;;;5024559;28;20136;-76
2022/09/03 15:14:35;;;;;;;0.50;0.47;;;;;;;;;;5025713;28;20045;-75